메인 페이지
METAR-TAF:

METAR-TAF

공항 :

Monroe, 루이지애나, 미국

위도: 32-30-42N, 경도: 092-01-53W, 고도: 24m

현재 날씨관측

예보는 1 시간 3분 전, 19:53시(UTC)에 발표되었습니다.
10kt
온도 25°C
습도 57%
기압 1008 hPa
시정: 16.1km
고도 4200ft 상공 구름 보통

METAR: KMLU 251953Z 26010KT 10SM SCT042 25/16 A2976 RMK AO2 SLP077 T02500161

시각: 15:56 (20:56 UTC)

예보

예보는 3 시간 30분 전, 17:26시(UTC)에 발표되었습니다.
예보 대상 시간: 25일 18시부터 26일 18시까지 (UTC)
13kt
시정: 10km
고도 5000ft 상공 구름 많음
일시적
25일 18시부터 25일 20시까지 (UTC)
고도 2000ft 상공 구름 많음
26일 0000시부터 (UTC)
12kt
시정: 10km
고도 25000ft 상공 구름 보통
26일 1200시부터 (UTC)
북북서8kt
시정: 10km
맑음

TAF: KMLU 251726Z 2518/2618 28013KT P6SM BKN050 TEMPO 2518/2520 BKN020 FM260000 28012KT P6SM SCT250 FM261200 34008KT P6SM SKC

4,000개 이상의 공항 관측 자료 및 예보 (METAR 및 TAF 보고).

지도상에서 검색 가능한 기상관측소가 노란 점과 빨간 점으로 표시되어 있습니다.

기상관측소 명을 보려면 표시 위로 마우스를 이동하세요.

날씨 관측과 예보를 보려면 클릭하세요.

지도 변경 : 확대하려면 엑스 표시가 있는 녹색 버튼, 축소하려면 빼기 표시가 있는 녹색 버튼, 다음 페이지의 지도를 보려면 녹색 화살표를 클릭하세요.


METAR-TAF: